Time;durP1;ratioP1;P1;durP2;ratioP2;P2;SDS_P1;SDS_P2;PMS_P1;PMS_P2;Temp;Humidity;BMP_temperature;BMP_pressure;BME280_temperature;BME280_humidity;BME280_pressure;Samples;Min_cycle;Max_cycle;Signal;HPM_P1;HPM_P2
2021/06/15 00:00:12;;;;;;;14.23;7.05;;;;;;;14.80;67.90;100780.24;3494279;82;99123;-86
2021/06/15 00:05:14;;;;;;;12.85;7.45;;;;;;;14.75;67.84;100777.87;3500579;83;34856;-85
2021/06/15 00:10:20;;;;;;;15.03;7.67;;;;;;;14.59;68.17;100756.11;3561982;81;98468;-86
2021/06/15 00:15:23;;;;;;;27.57;9.00;;;;;;;14.70;67.93;100766.59;3567501;81;26477;-86
2021/06/15 00:20:26;;;;;;;15.93;9.00;;;;;;;14.73;67.99;100765.02;3580421;80;98594;-85
2021/06/15 00:25:26;;;;;;;15.60;7.50;;;;;;;14.80;67.65;100769.16;3576133;81;35495;-85
2021/06/15 00:30:28;;;;;;;15.17;7.57;;;;;;;14.84;67.86;100757.48;3573060;80;98824;-86
2021/06/15 00:35:28;;;;;;;13.27;7.73;;;;;;;14.85;67.84;100760.45;3574435;81;30018;-86
2021/06/15 00:40:29;;;;;;;16.03;7.93;;;;;;;14.86;68.28;100759.25;3573516;81;98554;-85
2021/06/15 00:45:34;;;;;;;14.55;7.75;;;;;;;14.71;68.23;100740.47;3570992;81;30113;-85
2021/06/15 00:50:35;;;;;;;14.95;7.67;;;;;;;14.71;68.23;100740.47;3575570;81;98641;-85
2021/06/15 00:55:36;;;;;;;15.27;7.30;;;;;;;14.81;68.57;100754.11;3582133;81;26440;-86
2021/06/15 01:00:37;;;;;;;13.83;8.00;;;;;;;14.77;68.80;100763.04;3571061;81;98757;-86
2021/06/15 01:05:39;;;;;;;14.47;7.70;;;;;;;14.74;69.14;100758.28;3582450;81;28307;-86
2021/06/15 01:10:53;;;;;;;14.63;7.07;;;;;;;14.71;69.03;100753.55;3552617;81;98859;-86
2021/06/15 01:16:08;;;;;;;14.78;8.05;;;;;;;14.73;69.10;100752.55;3551077;81;34769;-84
2021/06/15 01:21:12;;;;;;;14.23;8.20;;;;;;;14.69;69.13;100747.02;3543831;81;98847;-86
2021/06/15 01:26:34;;;;;;;23.05;9.05;;;;;;;14.68;68.84;100752.94;3553245;81;34944;-86
2021/06/15 01:31:51;;;;;;;17.60;8.65;;;;;;;14.67;68.92;100752.14;3546024;80;98992;-86
2021/06/15 01:37:17;;;;;;;18.25;9.25;;;;;;;14.67;68.94;100744.44;3547435;81;98966;-84
2021/06/15 01:42:37;;;;;;;16.73;9.67;;;;;;;14.66;68.67;100745.63;3540793;81;26641;-86
2021/06/15 01:47:43;;;;;;;21.42;9.13;;;;;;;14.64;69.19;100740.48;3529820;81;98951;-86
2021/06/15 01:52:46;;;;;;;14.97;8.87;;;;;;;14.63;69.17;100744.45;3545722;81;25788;-85
2021/06/15 01:57:50;;;;;;;18.75;9.43;;;;;;;14.62;69.22;100738.72;3545576;80;99056;-84
2021/06/15 02:02:53;;;;;;;15.75;8.88;;;;;;;14.62;69.20;100748.41;3557145;81;36080;-86
2021/06/15 02:07:56;;;;;;;17.02;8.65;;;;;;;14.62;69.16;100740.09;3553844;81;99101;-86
2021/06/15 02:12:57;;;;;;;19.20;10.03;;;;;;;14.61;69.24;100738.48;3600500;80;35515;-86
2021/06/15 02:18:00;;;;;;;17.17;8.87;;;;;;;14.61;69.46;100730.18;3592702;80;99172;-86
2021/06/15 02:23:03;;;;;;;17.37;8.90;;;;;;;14.61;69.35;100733.56;3591834;80;34912;-86
2021/06/15 02:28:04;;;;;;;17.83;9.50;;;;;;;14.59;69.55;100732.56;3593475;80;98933;-87
2021/06/15 02:33:10;;;;;;;17.60;8.80;;;;;;;14.56;69.31;100727.80;3604589;80;26652;-86
2021/06/15 02:38:20;;;;;;;16.00;9.13;;;;;;;14.57;69.12;100728.03;3597934;80;98759;-85
2021/06/15 02:43:23;;;;;;;18.80;8.98;;;;;;;14.56;69.12;100727.80;3599183;80;33965;-87
2021/06/15 02:48:34;;;;;;;16.90;7.95;;;;;;;14.56;69.05;100738.11;3594848;80;98863;-87
2021/06/15 02:53:50;;;;;;;18.12;8.83;;;;;;;14.56;69.05;100738.11;3611221;80;34781;-86
2021/06/15 02:58:51;;;;;;;18.67;8.30;;;;;;;14.57;69.25;100732.77;3598125;80;99086;-86
2021/06/15 03:03:51;;;;;;;15.47;8.30;;;;;;;14.55;69.41;100735.92;3602074;80;32084;-86
2021/06/15 03:08:52;;;;;;;14.97;8.13;;;;;;;14.55;69.33;100753.16;3596471;80;99052;-86
2021/06/15 03:14:07;;;;;;;19.13;9.47;;;;;;;14.55;69.28;100747.00;3601766;80;27250;-86
2021/06/15 03:19:22;;;;;;;16.70;9.23;;;;;;;14.57;69.26;100746.61;3594467;80;99098;-85
2021/06/15 03:24:26;;;;;;;15.00;7.60;;;;;;;14.60;69.66;100741.68;3598532;80;34816;-83
2021/06/15 03:29:32;;;;;;;20.30;9.05;;;;;;;14.64;69.34;100747.41;3601780;80;99029;-87
2021/06/15 03:34:43;;;;;;;15.33;8.30;;;;;;;14.69;69.46;100751.17;3528690;82;26422;-86
2021/06/15 03:39:46;;;;;;;16.80;8.43;;;;;;;14.76;69.10;100748.97;3602080;80;99125;-86
2021/06/15 03:45:00;;;;;;;16.02;8.45;;;;;;;14.85;69.00;100749.36;3609387;80;34946;-86
2021/06/15 03:50:03;;;;;;;16.87;7.72;;;;;;;14.96;68.97;100744.59;3604721;80;98654;-86
2021/06/15 03:55:08;;;;;;;19.12;8.60;;;;;;;15.06;68.70;100741.83;3597387;80;35100;-87
2021/06/15 04:00:20;;;;;;;14.53;7.23;;;;;;;15.17;68.45;100729.30;3593833;80;99276;-86
2021/06/15 04:05:29;;;;;;;15.63;8.03;;;;;;;15.28;68.18;100725.32;3592893;80;35373;-86
2021/06/15 04:10:31;;;;;;;14.55;8.00;;;;;;;15.42;68.10;100728.06;3587143;80;98801;-86
2021/06/15 04:15:34;;;;;;;15.30;9.05;;;;;;;15.56;67.70;100726.62;3567964;81;35491;-87
2021/06/15 04:20:39;;;;;;;16.95;7.85;;;;;;;15.69;67.33;100728.36;3461337;83;98738;-88
2021/06/15 04:25:42;;;;;;;17.25;8.78;;;;;;;15.84;67.03;100732.03;3477723;83;35127;-87
2021/06/15 04:30:43;;;;;;;16.23;8.50;;;;;;;15.99;66.76;100729.96;3477140;83;98973;-87
2021/06/15 04:35:51;;;;;;;19.67;8.43;;;;;;;16.14;66.42;100726.67;3485569;83;32318;-87
2021/06/15 04:41:00;;;;;;;19.67;8.83;;;;;;;16.29;66.20;100726.77;3565972;81;98736;-87
2021/06/15 04:46:26;;;;;;;15.85;8.60;;;;;;;16.46;65.86;100723.72;3571319;80;35325;-87
2021/06/15 04:51:30;;;;;;;15.48;7.40;;;;;;;16.64;65.55;100718.78;3572247;81;99063;-87
2021/06/15 04:56:31;;;;;;;15.25;6.80;;;;;;;16.84;65.10;100723.35;3572375;81;34856;-88
2021/06/15 05:01:35;;;;;;;18.87;8.23;;;;;;;17.06;64.65;100728.12;3561341;81;98634;-87
2021/06/15 05:06:42;;;;;;;16.02;7.65;;;;;;;17.32;64.28;100732.37;3573103;81;34840;-88
2021/06/15 05:11:44;;;;;;;16.93;7.47;;;;;;;17.60;63.75;100726.50;3571929;81;98622;-87
2021/06/15 05:16:46;;;;;;;14.73;7.37;;;;;;;17.91;63.34;100731.45;3579901;81;35089;-86
2021/06/15 05:22:04;;;;;;;15.98;7.70;;;;;;;18.23;62.99;100738.16;3571042;81;98569;-87
2021/06/15 05:27:05;;;;;;;16.55;8.23;;;;;;;18.65;62.45;100744.45;3559683;81;98963;-87
2021/06/15 05:32:08;;;;;;;19.85;8.05;;;;;;;19.08;61.09;100743.89;3566993;81;34860;-86
2021/06/15 05:37:10;;;;;;;15.20;7.05;;;;;;;19.40;60.48;100748.30;3561449;81;99040;-87
2021/06/15 05:42:14;;;;;;;24.63;8.18;;;;;;;19.83;59.82;100746.83;3555470;81;34849;-87
2021/06/15 05:47:14;;;;;;;15.25;7.45;;;;;;;20.30;59.27;100746.77;3545878;80;121711;-88
2021/06/15 05:52:15;;;;;;;18.10;8.83;;;;;;;20.73;57.92;100745.91;3557266;81;34827;-87
2021/06/15 05:57:17;;;;;;;16.27;7.37;;;;;;;21.15;56.27;100746.25;3562999;80;98933;-87
2021/06/15 06:02:19;;;;;;;21.05;7.17;;;;;;;21.61;56.00;100750.73;3568718;81;34983;-85
2021/06/15 06:12:39;;;;;;;19.00;7.42;;;;;;;22.59;54.74;100748.34;3581451;81;34823;-86
2021/06/15 06:17:41;;;;;;;22.93;8.23;;;;;;;23.19;52.76;100752.72;3568280;81;99344;-88
2021/06/15 06:22:42;;;;;;;14.30;7.12;;;;;;;23.52;51.97;100750.50;3573885;81;34872;-86
2021/06/15 06:27:43;;;;;;;17.32;5.92;;;;;;;23.92;51.42;100759.84;3565224;81;99159;-88
2021/06/15 06:32:44;;;;;;;14.07;5.67;;;;;;;24.40;51.74;100756.34;3570317;81;34858;-89
2021/06/15 06:37:45;;;;;;;15.00;6.15;;;;;;;24.96;50.38;100758.23;3566131;81;98657;-88
2021/06/15 06:42:46;;;;;;;12.20;6.10;;;;;;;25.43;49.82;100769.09;3579377;81;34901;-88
2021/06/15 06:47:47;;;;;;;11.10;5.75;;;;;;;25.66;48.26;100765.01;3569378;80;99010;-88
2021/06/15 06:52:48;;;;;;;32.70;7.45;;;;;;;25.96;48.70;100764.05;3569618;81;34824;-90
2021/06/15 06:57:49;;;;;;;11.25;5.45;;;;;;;26.49;47.77;100759.45;3573098;81;99047;-85
2021/06/15 07:02:50;;;;;;;14.38;5.62;;;;;;;26.96;47.05;100751.68;3575869;81;34899;-88
2021/06/15 07:07:52;;;;;;;15.53;5.47;;;;;;;27.55;46.04;100746.37;3562358;81;98888;-89
2021/06/15 07:12:53;;;;;;;12.78;5.75;;;;;;;27.92;45.18;100739.11;3578322;80;34892;-89
2021/06/15 07:17:53;;;;;;;15.58;5.83;;;;;;;28.10;44.35;100736.86;3606611;80;99107;-87
2021/06/15 07:22:54;;;;;;;17.98;5.97;;;;;;;27.93;43.70;100738.63;3609950;80;25883;-90
2021/06/15 07:27:55;;;;;;;11.20;5.35;;;;;;;27.79;43.68;100734.39;3609007;80;98851;-88
2021/06/15 07:32:57;;;;;;;13.78;5.42;;;;;;;27.93;43.56;100730.14;3602213;80;32446;-89
2021/06/15 07:37:58;;;;;;;12.53;5.53;;;;;;;28.30;43.89;100729.06;3599433;80;99372;-88
2021/06/15 07:43:00;;;;;;;9.45;4.15;;;;;;;28.59;42.65;100723.34;3612429;80;32524;-88
2021/06/15 07:48:01;;;;;;;10.63;4.35;;;;;;;28.83;41.95;100723.95;3607679;80;98568;-88
2021/06/15 07:53:02;;;;;;;11.35;4.92;;;;;;;29.22;42.41;100723.20;3608293;80;33100;-89
2021/06/15 07:58:03;;;;;;;11.93;4.30;;;;;;;29.36;41.29;100727.99;3609943;80;98948;-89
2021/06/15 08:03:04;;;;;;;10.98;4.75;;;;;;;29.75;41.44;100732.03;3608943;80;33135;-89
2021/06/15 08:08:05;;;;;;;11.83;4.40;;;;;;;29.89;40.77;100728.94;3599280;80;98905;-87
2021/06/15 08:13:06;;;;;;;8.85;3.80;;;;;;;30.20;40.21;100733.24;3577547;81;33826;-89
2021/06/15 08:18:07;;;;;;;9.70;3.95;;;;;;;30.42;40.12;100727.72;3565941;81;98083;-89
2021/06/15 08:23:08;;;;;;;11.43;3.95;;;;;;;30.83;40.11;100731.89;3571585;81;32551;-90
2021/06/15 08:28:10;;;;;;;8.50;3.95;;;;;;;31.30;39.05;100737.55;3574271;81;98974;-88
2021/06/15 08:33:11;;;;;;;10.08;4.08;;;;;;;31.42;38.04;100739.77;3570903;80;32630;-89
2021/06/15 08:38:12;;;;;;;12.03;4.55;;;;;;;31.91;38.07;100727.09;3554473;80;98957;-87
2021/06/15 08:43:14;;;;;;;13.30;4.70;;;;;;;32.22;37.50;100736.02;3584860;81;25998;-87
2021/06/15 08:48:16;;;;;;;7.90;3.87;;;;;;;32.29;36.37;100720.63;3558340;81;98799;-87
2021/06/15 08:53:16;;;;;;;8.78;4.20;;;;;;;32.93;36.39;100725.17;3566136;81;25961;-87
2021/06/15 08:58:26;;;;;;;10.30;3.92;;;;;;;33.44;35.84;100723.79;3564168;81;98895;-87
2021/06/15 09:03:27;;;;;;;7.30;3.75;;;;;;;33.82;35.19;100716.29;3570907;81;27405;-86
2021/06/15 09:08:30;;;;;;;9.33;3.92;;;;;;;34.17;34.56;100717.03;3558946;81;98852;-88
2021/06/15 09:13:40;;;;;;;8.35;3.85;;;;;;;34.69;34.06;100717.59;3571302;81;26615;-87
2021/06/15 09:18:41;;;;;;;9.00;4.25;;;;;;;34.84;33.78;100708.59;3553486;80;98838;-88
2021/06/15 09:23:42;;;;;;;14.07;4.03;;;;;;;35.05;32.99;100719.02;3578868;81;26210;-87
2021/06/15 09:28:50;;;;;;;7.75;3.75;;;;;;;35.27;32.26;100721.61;3575755;81;99398;-87
2021/06/15 09:33:51;;;;;;;10.68;4.12;;;;;;;35.46;31.75;100714.45;3574949;80;27439;-88
2021/06/15 09:39:01;;;;;;;7.03;3.87;;;;;;;35.29;31.87;100713.89;3561813;81;98937;-86
2021/06/15 09:44:25;;;;;;;8.75;3.98;;;;;;;35.42;33.45;100709.69;3578974;81;27360;-88
2021/06/15 09:49:40;;;;;;;;;;;;;;;35.55;31.73;100714.83;3561650;81;98924;-87
2021/06/15 09:54:53;;;;;;;12.53;4.17;;;;;;;35.38;30.83;100708.58;3574069;81;27485;-86
2021/06/15 10:00:16;;;;;;;9.40;3.55;;;;;;;35.12;31.30;100708.37;3539329;81;99216;-87
2021/06/15 10:05:34;;;;;;;6.20;3.10;;;;;;;34.83;31.69;100709.92;3567280;81;27423;-86
2021/06/15 10:10:38;;;;;;;24.60;4.97;;;;;;;34.93;31.62;100711.10;3557310;80;99101;-86
2021/06/15 10:15:43;;;;;;;7.67;3.30;;;;;;;34.91;31.26;100711.64;3549154;81;27419;-86
2021/06/15 10:20:43;;;;;;;8.93;3.52;;;;;;;34.78;30.90;100705.82;3543945;81;98954;-83
2021/06/15 10:25:45;;;;;;;5.87;3.10;;;;;;;34.44;30.57;100702.41;3551763;81;26433;-87
2021/06/15 10:30:46;;;;;;;7.47;3.40;;;;;;;34.18;32.13;100696.39;3548853;81;98980;-86
2021/06/15 10:35:54;;;;;;;7.80;2.60;;;;;;;34.79;32.20;100691.64;3546472;81;25988;-87
2021/06/15 10:41:00;;;;;;;10.40;3.95;;;;;;;34.83;31.10;100692.76;3545754;81;98810;-85
2021/06/15 10:46:19;;;;;;;7.37;3.45;;;;;;;34.76;30.67;100695.56;3549247;81;26856;-86
2021/06/15 10:51:34;;;;;;;8.73;3.33;;;;;;;34.35;31.28;100689.88;3548082;81;98598;-86
2021/06/15 10:56:37;;;;;;;6.03;3.27;;;;;;;;;;3553810;81;26601;-86
2021/06/15 11:01:41;;;;;;;7.22;3.00;;;;;;;34.37;31.42;100681.56;3552533;81;71817;-86
2021/06/15 11:06:46;;;;;;;7.90;3.25;;;;;;;34.29;30.12;100683.45;3560680;81;27375;-84
2021/06/15 11:12:07;;;;;;;8.68;3.55;;;;;;;34.01;30.03;100675.09;3553475;81;98518;-85
2021/06/15 11:17:08;;;;;;;6.20;3.30;;;;;;;33.85;30.42;100676.05;3568658;81;98640;-84
2021/06/15 11:22:14;;;;;;;26.30;5.00;;;;;;;33.78;30.17;100664.42;3579266;80;25799;-87
2021/06/15 11:27:27;;;;;;;7.65;3.50;;;;;;;33.77;30.37;100659.33;3552614;80;99284;-84
2021/06/15 11:32:34;;;;;;;7.57;3.07;;;;;;;34.06;31.27;100656.38;3564851;81;28288;-87
2021/06/15 11:37:46;;;;;;;7.37;3.30;;;;;;;34.04;31.64;100650.41;3559418;80;98961;-87
2021/06/15 11:42:58;;;;;;;16.67;3.35;;;;;;;34.23;31.54;100653.48;3567848;81;27474;-87
2021/06/15 11:48:31;;;;;;;20.77;4.35;;;;;;;34.07;31.28;100656.49;3557395;81;98991;-86
2021/06/15 11:53:37;;;;;;;7.67;3.77;;;;;;;33.57;31.06;100655.45;3570683;81;27518;-86
2021/06/15 11:58:46;;;;;;;5.95;3.25;;;;;;;33.10;31.54;100646.01;3550836;80;99075;-87
2021/06/15 12:03:49;;;;;;;6.28;2.95;;;;;;;32.83;33.13;100654.05;3568989;81;25928;-85
2021/06/15 12:08:51;;;;;;;7.00;3.30;;;;;;;32.92;33.23;100652.33;3553713;80;99001;-86
2021/06/15 12:13:52;;;;;;;6.08;2.70;;;;;;;33.20;33.14;100648.67;3581510;81;27448;-84
2021/06/15 12:18:58;;;;;;;6.60;3.08;;;;;;;33.06;32.83;100644.87;3571048;81;98598;-85
2021/06/15 12:24:06;;;;;;;7.00;3.30;;;;;;;33.05;33.11;100649.03;3577589;81;27427;-86
2021/06/15 12:29:16;;;;;;;8.05;3.12;;;;;;;33.14;32.78;100647.94;3564350;81;98538;-85
2021/06/15 12:34:20;;;;;;;7.62;3.80;;;;;;;33.18;33.05;100639.88;3574227;81;27423;-87
2021/06/15 12:39:25;;;;;;;8.28;3.62;;;;;;;33.11;32.90;100631.22;3576473;81;98697;-87
2021/06/15 12:44:30;;;;;;;8.23;3.00;;;;;;;33.27;33.02;100632.41;3577950;81;46721;-86
2021/06/15 12:49:31;;;;;;;;;;;;;;;33.53;32.85;100630.72;3575436;80;99102;-85
2021/06/15 12:54:37;;;;;;;6.40;2.75;;;;;;;33.59;31.79;100624.95;3579328;81;26433;-87
2021/06/15 12:59:41;;;;;;;5.92;3.37;;;;;;;33.37;33.55;100625.12;3570098;81;98920;-86
2021/06/15 13:04:53;;;;;;;9.83;3.27;;;;;;;33.39;33.18;100628.23;3574704;80;28617;-87
2021/06/15 13:09:56;;;;;;;6.28;2.98;;;;;;;33.30;33.24;100625.02;3566087;81;98891;-87
2021/06/15 13:15:06;;;;;;;9.13;3.33;;;;;;;33.12;32.82;100625.64;3558762;81;28706;-87
2021/06/15 13:20:10;;;;;;;7.62;3.22;;;;;;;32.63;32.89;100625.21;3550249;81;98509;-88
2021/06/15 13:25:20;;;;;;;;;;;;;;;32.28;33.55;100629.34;3547914;81;27436;-88
2021/06/15 13:30:34;;;;;;;5.22;3.02;;;;;;;31.83;32.52;100624.21;3549438;81;85092;-88
2021/06/15 13:35:55;;;;;;;7.80;4.70;;;;;;;31.53;34.20;100631.03;3544725;81;28250;-87
2021/06/15 13:41:00;;;;;;;9.78;5.00;;;;;;;31.34;35.63;100632.80;3544008;81;98308;-87
2021/06/15 13:46:08;;;;;;;10.28;4.90;;;;;;;31.40;36.67;100630.77;3551273;81;28035;-88
2021/06/15 13:51:13;;;;;;;9.95;5.40;;;;;;;31.13;36.90;100633.52;3550979;81;98874;-88
2021/06/15 13:56:16;;;;;;;10.72;4.75;;;;;;;30.53;37.96;100634.05;3548665;81;26366;-88
2021/06/15 14:01:17;;;;;;;7.45;4.58;;;;;;;30.21;39.06;100639.67;3547374;80;98917;-88
2021/06/15 14:06:18;;;;;;;10.10;5.25;;;;;;;30.15;39.46;100641.07;3559900;81;32539;-87
2021/06/15 14:11:18;;;;;;;13.43;6.30;;;;;;;29.99;40.02;100650.84;3550809;81;98801;-88
2021/06/15 14:16:19;;;;;;;11.43;5.30;;;;;;;29.70;40.43;100643.38;3599518;80;32519;-87
2021/06/15 14:21:21;;;;;;;13.60;5.42;;;;;;;29.48;41.09;100645.99;3596777;80;99076;-87
2021/06/15 14:26:22;;;;;;;9.13;5.25;;;;;;;29.18;41.17;100652.39;3612952;80;32536;-87
2021/06/15 14:31:23;;;;;;;12.50;6.00;;;;;;;28.93;41.92;100654.54;3601941;80;98481;-88
2021/06/15 14:36:23;;;;;;;11.93;6.92;;;;;;;28.81;42.41;100662.73;3618280;80;32450;-86
2021/06/15 14:41:24;;;;;;;12.05;6.33;;;;;;;28.37;44.40;100668.56;3601776;80;98485;-88
2021/06/15 14:46:25;;;;;;;11.00;5.65;;;;;;;28.00;45.60;100672.38;3600879;80;26377;-87
2021/06/15 14:51:26;;;;;;;9.85;6.05;;;;;;;27.80;46.28;100667.41;3605812;80;98844;-88
2021/06/15 14:56:27;;;;;;;10.20;6.08;;;;;;;27.84;46.79;100671.47;3601774;80;26352;-87
2021/06/15 15:01:28;;;;;;;10.75;6.78;;;;;;;27.72;46.83;100671.88;3599965;80;98834;-88
2021/06/15 15:06:30;;;;;;;10.45;7.00;;;;;;;27.56;47.54;100670.95;3610056;80;26890;-88
2021/06/15 15:11:32;;;;;;;12.78;6.58;;;;;;;27.60;47.69;100666.52;3613107;80;98705;-85
2021/06/15 15:16:34;;;;;;;11.30;6.78;;;;;;;27.62;48.09;100661.16;3578874;81;26432;-87
2021/06/15 15:21:35;;;;;;;13.00;6.05;;;;;;;27.67;48.12;100661.25;3564249;81;98805;-88
2021/06/15 15:26:36;;;;;;;9.55;6.12;;;;;;;27.61;48.16;100663.83;3571438;81;26539;-88
2021/06/15 15:31:37;;;;;;;11.53;6.05;;;;;;;27.71;48.19;100666.08;3558612;81;98624;-87
2021/06/15 15:36:38;;;;;;;10.20;5.67;;;;;;;27.56;48.29;100665.92;3569546;81;25884;-87
2021/06/15 15:41:40;;;;;;;10.15;5.78;;;;;;;27.36;48.02;100665.83;3571152;81;98855;-87
2021/06/15 15:46:42;;;;;;;11.85;5.55;;;;;;;27.41;48.28;100664.50;3568486;81;25881;-87
2021/06/15 15:51:43;;;;;;;8.45;5.85;;;;;;;27.36;48.00;100663.00;3545984;81;98690;-88
2021/06/15 15:56:46;;;;;;;12.13;6.62;;;;;;;27.47;47.98;100659.73;3573026;81;26497;-88
2021/06/15 16:01:47;;;;;;;8.28;5.62;;;;;;;27.60;48.32;100656.61;3572554;81;98738;-87
2021/06/15 16:06:48;;;;;;;10.45;5.92;;;;;;;27.47;48.10;100649.83;3572869;81;27633;-87
2021/06/15 16:11:49;;;;;;;12.95;5.78;;;;;;;27.31;48.18;100648.13;3559894;80;98744;-88
2021/06/15 16:16:50;;;;;;;9.73;4.53;;;;;;;27.25;48.21;100646.60;3575640;81;26526;-87
2021/06/15 16:21:51;;;;;;;9.30;4.72;;;;;;;27.35;47.78;100646.66;3573139;81;98216;-88
2021/06/15 16:26:52;;;;;;;9.73;4.92;;;;;;;27.12;46.63;100652.34;3566798;81;98940;-84
2021/06/15 16:31:53;;;;;;;10.08;4.97;;;;;;;27.04;47.16;100654.00;3647524;79;26513;-88
2021/06/15 16:36:54;;;;;;;11.35;5.00;;;;;;;26.81;47.00;100655.59;3640902;79;99164;-88
2021/06/15 16:41:56;;;;;;;8.65;4.85;;;;;;;26.65;47.03;100658.84;3578561;81;25914;-87
2021/06/15 16:46:57;;;;;;;9.53;5.37;;;;;;;26.62;47.50;100663.27;3564631;81;98989;-88
2021/06/15 16:51:58;;;;;;;11.93;5.70;;;;;;;26.61;47.79;100667.36;3582480;81;26332;-88
2021/06/15 16:56:59;;;;;;;10.28;6.15;;;;;;;26.46;48.52;100675.73;3562968;81;98735;-86
2021/06/15 17:02:00;;;;;;;9.80;6.08;;;;;;;26.23;49.76;100675.09;3562531;81;25965;-85
2021/06/15 17:07:00;;;;;;;11.73;6.00;;;;;;;26.13;50.79;100678.41;3567934;81;98663;-87
2021/06/15 17:12:06;;;;;;;11.40;6.50;;;;;;;25.96;51.34;100680.84;3579132;81;33369;-87
2021/06/15 17:17:06;;;;;;;12.23;5.40;;;;;;;25.82;51.14;100684.95;3573369;81;99273;-87
2021/06/15 17:22:08;;;;;;;11.60;5.92;;;;;;;25.75;51.70;100683.85;3573212;81;33364;-87
2021/06/15 17:27:09;;;;;;;9.93;6.20;;;;;;;25.67;52.19;100687.63;3562269;80;98889;-87
2021/06/15 17:32:10;;;;;;;12.33;5.85;;;;;;;25.56;52.65;100698.61;3581810;81;34423;-88
2021/06/15 17:37:11;;;;;;;10.30;5.95;;;;;;;25.49;52.89;100701.77;3568097;80;99352;-87
2021/06/15 17:42:12;;;;;;;10.85;5.75;;;;;;;25.41;53.17;100696.31;3562474;81;33907;-87
2021/06/15 17:47:13;;;;;;;9.88;5.60;;;;;;;25.24;53.80;100689.38;3563378;80;99458;-86
2021/06/15 17:52:14;;;;;;;9.58;6.03;;;;;;;25.02;54.33;100686.59;3575925;80;31456;-87
2021/06/15 17:57:15;;;;;;;8.83;5.00;;;;;;;24.79;54.99;100693.60;3565740;80;99012;-87
2021/06/15 18:02:16;;;;;;;7.87;4.95;;;;;;;24.66;55.29;100690.16;3556952;81;30496;-87
2021/06/15 18:07:24;;;;;;;8.68;5.28;;;;;;;24.55;55.56;100696.03;3551275;81;99046;-87
2021/06/15 18:12:19;;;;;;;10.88;5.28;;;;;;;24.39;55.79;100688.66;3571909;81;31837;-88
2021/06/15 18:17:21;;;;;;;12.23;6.55;;;;;;;24.25;56.06;100691.27;3561603;81;98862;-87
2021/06/15 18:22:22;;;;;;;12.28;6.10;;;;;;;24.13;56.20;100694.98;3568211;81;31736;-89
2021/06/15 18:27:23;;;;;;;9.30;4.90;;;;;;;23.97;56.39;100695.22;3568682;81;98669;-89
2021/06/15 18:32:24;;;;;;;8.38;5.00;;;;;;;23.77;56.66;100691.31;3577207;81;31583;-88
2021/06/15 18:37:28;;;;;;;9.68;5.72;;;;;;;23.64;56.92;100699.06;3564650;81;98907;-89
2021/06/15 18:42:30;;;;;;;8.93;5.40;;;;;;;23.57;57.13;100703.55;3571891;81;31742;-88
2021/06/15 18:47:33;;;;;;;10.60;5.83;;;;;;;23.40;57.46;100695.17;3567608;81;99871;-88
2021/06/15 18:52:34;;;;;;;9.15;5.78;;;;;;;23.30;57.68;100698.34;3570149;81;31649;-88
2021/06/15 18:57:35;;;;;;;12.23;6.00;;;;;;;23.17;58.01;100703.22;3568249;81;98453;-88
2021/06/15 19:02:37;;;;;;;9.63;5.58;;;;;;;23.03;58.19;100701.70;3562647;81;32309;-89
2021/06/15 19:07:38;;;;;;;9.50;5.58;;;;;;;22.89;58.30;100704.23;3557731;81;98965;-88
2021/06/15 19:12:39;;;;;;;12.20;6.08;;;;;;;22.77;58.52;100710.67;3553993;81;31659;-88
2021/06/15 19:17:40;;;;;;;10.72;5.60;;;;;;;22.62;58.91;100714.55;3564891;81;100274;-88
2021/06/15 19:22:41;;;;;;;8.90;5.42;;;;;;;22.45;59.11;100717.33;3581591;80;30910;-88
2021/06/15 19:27:42;;;;;;;11.05;6.92;;;;;;;22.32;59.29;100719.34;3566731;81;98940;-88
2021/06/15 19:32:43;;;;;;;9.63;5.80;;;;;;;22.15;59.66;100727.70;3573492;81;30040;-87
2021/06/15 19:37:45;;;;;;;12.98;7.62;;;;;;;21.93;59.93;100721.78;3561894;81;98673;-88
2021/06/15 19:42:46;;;;;;;12.35;6.47;;;;;;;21.71;60.58;100727.27;3575479;81;30712;-87
2021/06/15 19:47:48;;;;;;;8.75;5.37;;;;;;;21.54;61.00;100731.94;3573740;80;99065;-88
2021/06/15 19:52:49;;;;;;;9.38;5.70;;;;;;;21.39;61.26;100732.16;3575912;80;30824;-88
2021/06/15 19:57:50;;;;;;;9.18;5.83;;;;;;;21.19;61.41;100730.15;3561570;80;98892;-87
2021/06/15 20:02:51;;;;;;;10.90;5.58;;;;;;;21.03;61.77;100732.98;3568145;81;30307;-87
2021/06/15 20:07:52;;;;;;;11.10;6.33;;;;;;;20.85;62.05;100734.01;3561735;81;99127;-88
2021/06/15 20:12:53;;;;;;;10.95;6.42;;;;;;;20.62;62.67;100735.00;3566980;81;29441;-88
2021/06/15 20:17:54;;;;;;;10.08;7.03;;;;;;;20.38;63.33;100744.00;3558984;80;99110;-88
2021/06/15 20:22:57;;;;;;;11.22;6.85;;;;;;;20.24;63.79;100750.70;3569088;81;26251;-88
2021/06/15 20:27:58;;;;;;;10.08;6.75;;;;;;;20.12;64.03;100756.95;3569086;81;98957;-87
2021/06/15 20:32:59;;;;;;;10.93;5.87;;;;;;;19.98;64.48;100767.62;3571651;81;28771;-87
2021/06/15 20:38:00;;;;;;;11.03;6.22;;;;;;;19.83;64.88;100766.38;3561895;81;99138;-88
2021/06/15 20:43:02;;;;;;;11.00;6.23;;;;;;;19.72;65.22;100763.80;3571143;81;27182;-86
2021/06/15 20:48:04;;;;;;;8.93;6.03;;;;;;;19.58;65.54;100750.73;3565389;81;98964;-86
2021/06/15 20:53:05;;;;;;;10.03;6.43;;;;;;;19.45;66.11;100767.97;3567642;81;27847;-86
2021/06/15 20:58:06;;;;;;;9.25;4.92;;;;;;;19.32;66.99;100770.59;3576033;81;98979;-87
2021/06/15 21:03:07;;;;;;;9.80;5.10;;;;;;;19.21;66.60;100775.59;3564514;81;26455;-88
2021/06/15 21:08:08;;;;;;;15.13;5.23;;;;;;;19.11;66.92;100775.73;3564464;81;98813;-87
2021/06/15 21:13:09;;;;;;;8.80;5.33;;;;;;;19.01;66.80;100783.09;3575128;81;26415;-88
2021/06/15 21:18:10;;;;;;;7.50;4.37;;;;;;;18.90;66.88;100781.09;3590090;80;98798;-87
2021/06/15 21:23:11;;;;;;;10.63;4.45;;;;;;;18.78;67.00;100790.06;3601343;80;34461;-88
2021/06/15 21:28:12;;;;;;;10.58;4.33;;;;;;;18.70;67.09;100797.58;3587214;80;99195;-88
2021/06/15 21:33:12;;;;;;;9.05;4.40;;;;;;;18.61;67.26;100809.86;3595395;80;34287;-86
2021/06/15 21:38:13;;;;;;;8.00;3.35;;;;;;;18.46;67.80;100823.23;3595653;80;98794;-87
2021/06/15 21:43:14;;;;;;;6.17;3.05;;;;;;;18.23;67.13;100815.37;3600004;80;31662;-87
2021/06/15 21:48:15;;;;;;;6.40;2.10;;;;;;;18.06;66.18;100816.40;3583257;80;98883;-85
2021/06/15 21:53:17;;;;;;;5.28;2.20;;;;;;;17.88;64.98;100825.59;3608272;80;27156;-86
2021/06/15 21:58:18;;;;;;;5.47;2.42;;;;;;;17.70;63.76;100834.14;3588389;80;98799;-87
2021/06/15 22:03:19;;;;;;;4.92;1.95;;;;;;;17.55;62.99;100850.04;3619929;80;31009;-88
2021/06/15 22:08:20;;;;;;;6.58;1.98;;;;;;;17.41;62.48;100850.97;3594409;80;98816;-86
2021/06/15 22:13:21;;;;;;;3.95;1.30;;;;;;;17.25;61.96;100859.63;3604751;80;31600;-86
2021/06/15 22:18:22;;;;;;;4.55;1.70;;;;;;;17.11;61.53;100852.83;3575740;80;99040;-85
2021/06/15 22:23:22;;;;;;;6.60;2.10;;;;;;;16.99;61.56;100863.03;3571428;81;31672;-86
2021/06/15 22:28:23;;;;;;;5.20;1.85;;;;;;;16.89;61.25;100859.14;3559462;81;98926;-85
2021/06/15 22:33:25;;;;;;;4.95;1.57;;;;;;;16.78;61.34;100855.65;3565291;81;30677;-85
2021/06/15 22:38:26;;;;;;;4.28;1.80;;;;;;;16.67;61.25;100858.34;3567420;81;99036;-86
2021/06/15 22:43:26;;;;;;;4.67;1.75;;;;;;;16.55;61.05;100859.59;3566021;81;26314;-86
2021/06/15 22:48:27;;;;;;;3.95;1.40;;;;;;;16.47;60.98;100873.31;3561991;80;99079;-85
2021/06/15 22:53:28;;;;;;;5.37;1.45;;;;;;;16.40;61.03;100873.36;3571883;81;27744;-85
2021/06/15 22:58:29;;;;;;;3.58;1.40;;;;;;;16.34;60.82;100872.18;3560788;81;98724;-85
2021/06/15 23:03:30;;;;;;;3.42;1.22;;;;;;;16.29;60.83;100873.22;3578359;81;25980;-85
2021/06/15 23:08:31;;;;;;;4.35;1.22;;;;;;;16.24;61.00;100870.23;3566184;81;99066;-85
2021/06/15 23:13:32;;;;;;;3.47;1.20;;;;;;;16.20;60.84;100873.66;3570385;81;33724;-85
2021/06/15 23:18:33;;;;;;;3.93;1.20;;;;;;;16.09;60.66;100858.23;3572287;81;98953;-85
2021/06/15 23:23:34;;;;;;;3.47;1.17;;;;;;;16.04;60.84;100873.33;3572376;81;33767;-86
2021/06/15 23:28:35;;;;;;;4.53;1.67;;;;;;;15.96;60.74;100876.53;3563820;81;98845;-86